KFDR/FDR METAR and TAF weather

Enter ICAO airport designator
Station Type Date Time Source
KFDR METAR 2022/01/29 01:53 UTC NOAA

KFDR 290153Z AUTO 22003KT 10SM CLR 06/M03 A3038 RMK AO2 SLP293 T00561033


Station Type Date Time Source
KFDR Decoded METAR 2022/01/29 01:53 UTC NOAA

FREDERICK MUNICIPAL AIRPORT, OK, United States (KFDR) 34-21N 98-59W 377M
Jan 28, 2022 - 08:53 PM EST / 2022.01.29 0153 UTC
Wind: from the SW (220 degrees) at 3 MPH (3 KT):0
Visibility: 10 mile(s):0
Sky conditions: clear
Temperature: 42.1 F (5.6 C)
Dew Point: 26.1 F (-3.3 C)
Relative Humidity: 52%
Pressure (altimeter): 30.38 in. Hg (1028 hPa)
ob: KFDR 290153Z AUTO 22003KT 10SM CLR 06/M03 A3038 RMK AO2 SLP293 T00561033
cycle: 2

Station Type Date Time Source
KFDR TAF UTC NOAA

Error!

Example: see airport list